sensor_id;sensor_type;location;lat;lon;timestamp;P1;durP1;ratioP1;P2;durP2;ratioP2
39620;SDS011;25309;48.686;9.170;2024-03-22T00:00:07;10.70;;;7.53;;
39620;SDS011;25309;48.686;9.170;2024-03-22T00:02:39;10.57;;;7.50;;
39620;SDS011;25309;48.686;9.170;2024-03-22T00:05:05;10.03;;;8.33;;
39620;SDS011;25309;48.686;9.170;2024-03-22T00:07:32;10.83;;;8.27;;
39620;SDS011;25309;48.686;9.170;2024-03-22T00:09:57;10.47;;;7.43;;
39620;SDS011;25309;48.686;9.170;2024-03-22T00:12:23;10.27;;;7.63;;
39620;SDS011;25309;48.686;9.170;2024-03-22T00:14:52;12.10;;;8.33;;
39620;SDS011;25309;48.686;9.170;2024-03-22T00:17:19;10.80;;;8.03;;
39620;SDS011;25309;48.686;9.170;2024-03-22T00:19:45;9.40;;;7.37;;
39620;SDS011;25309;48.686;9.170;2024-03-22T00:22:11;10.40;;;7.90;;
39620;SDS011;25309;48.686;9.170;2024-03-22T00:24:37;10.33;;;7.70;;
39620;SDS011;25309;48.686;9.170;2024-03-22T00:27:03;10.90;;;7.60;;
39620;SDS011;25309;48.686;9.170;2024-03-22T00:29:30;11.80;;;7.80;;
39620;SDS011;25309;48.686;9.170;2024-03-22T00:31:57;10.00;;;6.90;;
39620;SDS011;25309;48.686;9.170;2024-03-22T00:34:23;10.80;;;7.63;;
39620;SDS011;25309;48.686;9.170;2024-03-22T00:36:49;9.90;;;7.73;;
39620;SDS011;25309;48.686;9.170;2024-03-22T00:39:16;10.40;;;7.87;;
39620;SDS011;25309;48.686;9.170;2024-03-22T00:41:42;11.17;;;7.43;;
39620;SDS011;25309;48.686;9.170;2024-03-22T00:44:08;11.97;;;8.03;;
39620;SDS011;25309;48.686;9.170;2024-03-22T00:46:34;11.43;;;8.17;;
39620;SDS011;25309;48.686;9.170;2024-03-22T00:49:02;10.40;;;7.47;;
39620;SDS011;25309;48.686;9.170;2024-03-22T00:51:28;10.90;;;8.13;;
39620;SDS011;25309;48.686;9.170;2024-03-22T00:53:54;10.77;;;8.00;;
39620;SDS011;25309;48.686;9.170;2024-03-22T00:56:20;11.23;;;7.90;;
39620;SDS011;25309;48.686;9.170;2024-03-22T00:58:46;11.27;;;7.90;;
39620;SDS011;25309;48.686;9.170;2024-03-22T01:01:13;10.53;;;8.07;;
39620;SDS011;25309;48.686;9.170;2024-03-22T01:03:39;10.73;;;7.57;;
39620;SDS011;25309;48.686;9.170;2024-03-22T01:06:06;11.30;;;7.83;;
39620;SDS011;25309;48.686;9.170;2024-03-22T01:08:32;10.00;;;7.67;;
39620;SDS011;25309;48.686;9.170;2024-03-22T01:10:58;11.53;;;7.70;;
39620;SDS011;25309;48.686;9.170;2024-03-22T01:13:24;8.73;;;7.27;;
39620;SDS011;25309;48.686;9.170;2024-03-22T01:15:50;10.33;;;8.00;;
39620;SDS011;25309;48.686;9.170;2024-03-22T01:18:16;8.60;;;7.33;;
39620;SDS011;25309;48.686;9.170;2024-03-22T01:20:43;12.23;;;7.77;;
39620;SDS011;25309;48.686;9.170;2024-03-22T01:23:10;12.43;;;8.47;;
39620;SDS011;25309;48.686;9.170;2024-03-22T01:25:36;10.90;;;8.47;;
39620;SDS011;25309;48.686;9.170;2024-03-22T01:28:02;10.17;;;8.47;;
39620;SDS011;25309;48.686;9.170;2024-03-22T01:30:29;12.10;;;8.53;;
39620;SDS011;25309;48.686;9.170;2024-03-22T01:32:55;11.57;;;8.50;;
39620;SDS011;25309;48.686;9.170;2024-03-22T01:35:21;12.77;;;8.73;;
39620;SDS011;25309;48.686;9.170;2024-03-22T01:37:47;11.63;;;8.67;;
39620;SDS011;25309;48.686;9.170;2024-03-22T01:40:15;10.93;;;8.67;;
39620;SDS011;25309;48.686;9.170;2024-03-22T01:42:41;10.57;;;8.00;;
39620;SDS011;25309;48.686;9.170;2024-03-22T01:45:12;12.23;;;8.70;;
39620;SDS011;25309;48.686;9.170;2024-03-22T01:47:39;10.47;;;8.20;;
39620;SDS011;25309;48.686;9.170;2024-03-22T01:50:06;11.20;;;8.03;;
39620;SDS011;25309;48.686;9.170;2024-03-22T01:52:34;10.60;;;7.93;;
39620;SDS011;25309;48.686;9.170;2024-03-22T01:55:00;10.67;;;8.03;;
39620;SDS011;25309;48.686;9.170;2024-03-22T01:57:28;10.17;;;8.63;;
39620;SDS011;25309;48.686;9.170;2024-03-22T01:59:54;12.10;;;8.53;;
39620;SDS011;25309;48.686;9.170;2024-03-22T02:02:22;9.70;;;7.83;;
39620;SDS011;25309;48.686;9.170;2024-03-22T02:04:50;11.60;;;8.00;;
39620;SDS011;25309;48.686;9.170;2024-03-22T02:07:16;13.43;;;8.83;;
39620;SDS011;25309;48.686;9.170;2024-03-22T02:09:42;10.93;;;8.03;;
39620;SDS011;25309;48.686;9.170;2024-03-22T02:12:08;11.63;;;8.60;;
39620;SDS011;25309;48.686;9.170;2024-03-22T02:14:36;11.30;;;8.77;;
39620;SDS011;25309;48.686;9.170;2024-03-22T02:17:02;12.33;;;8.97;;
39620;SDS011;25309;48.686;9.170;2024-03-22T02:19:27;11.80;;;8.27;;
39620;SDS011;25309;48.686;9.170;2024-03-22T02:21:53;10.97;;;8.63;;
39620;SDS011;25309;48.686;9.170;2024-03-22T02:24:21;11.07;;;8.23;;
39620;SDS011;25309;48.686;9.170;2024-03-22T02:26:47;14.33;;;9.03;;
39620;SDS011;25309;48.686;9.170;2024-03-22T02:29:13;15.03;;;8.83;;
39620;SDS011;25309;48.686;9.170;2024-03-22T02:31:39;13.67;;;10.07;;
39620;SDS011;25309;48.686;9.170;2024-03-22T02:34:05;12.30;;;8.87;;
39620;SDS011;25309;48.686;9.170;2024-03-22T02:36:31;10.80;;;8.17;;
39620;SDS011;25309;48.686;9.170;2024-03-22T02:38:57;12.80;;;9.03;;
39620;SDS011;25309;48.686;9.170;2024-03-22T02:41:24;12.70;;;8.70;;
39620;SDS011;25309;48.686;9.170;2024-03-22T02:43:50;12.67;;;9.10;;
39620;SDS011;25309;48.686;9.170;2024-03-22T02:46:16;13.23;;;9.53;;
39620;SDS011;25309;48.686;9.170;2024-03-22T02:48:42;14.27;;;9.23;;
39620;SDS011;25309;48.686;9.170;2024-03-22T02:51:08;11.50;;;9.50;;
39620;SDS011;25309;48.686;9.170;2024-03-22T02:53:34;14.10;;;10.37;;
39620;SDS011;25309;48.686;9.170;2024-03-22T02:56:00;12.33;;;9.13;;
39620;SDS011;25309;48.686;9.170;2024-03-22T02:58:28;11.00;;;9.23;;
39620;SDS011;25309;48.686;9.170;2024-03-22T03:00:54;11.93;;;8.97;;
39620;SDS011;25309;48.686;9.170;2024-03-22T03:03:20;12.37;;;9.20;;
39620;SDS011;25309;48.686;9.170;2024-03-22T03:05:46;11.03;;;8.83;;
39620;SDS011;25309;48.686;9.170;2024-03-22T03:08:12;14.53;;;9.70;;
39620;SDS011;25309;48.686;9.170;2024-03-22T03:10:38;13.40;;;10.27;;
39620;SDS011;25309;48.686;9.170;2024-03-22T03:13:04;11.20;;;8.53;;
39620;SDS011;25309;48.686;9.170;2024-03-22T03:15:31;13.40;;;9.33;;
39620;SDS011;25309;48.686;9.170;2024-03-22T03:17:57;14.00;;;9.67;;
39620;SDS011;25309;48.686;9.170;2024-03-22T03:20:23;12.03;;;9.70;;
39620;SDS011;25309;48.686;9.170;2024-03-22T03:22:51;14.90;;;10.13;;
39620;SDS011;25309;48.686;9.170;2024-03-22T03:25:17;15.87;;;9.73;;
39620;SDS011;25309;48.686;9.170;2024-03-22T03:27:43;11.83;;;9.50;;
39620;SDS011;25309;48.686;9.170;2024-03-22T03:30:09;15.80;;;10.23;;
39620;SDS011;25309;48.686;9.170;2024-03-22T03:32:37;12.77;;;10.10;;
39620;SDS011;25309;48.686;9.170;2024-03-22T03:35:03;11.83;;;9.20;;
39620;SDS011;25309;48.686;9.170;2024-03-22T03:37:30;13.70;;;9.97;;
39620;SDS011;25309;48.686;9.170;2024-03-22T03:39:56;12.93;;;9.20;;
39620;SDS011;25309;48.686;9.170;2024-03-22T03:42:22;13.70;;;9.10;;
39620;SDS011;25309;48.686;9.170;2024-03-22T03:44:48;13.70;;;9.93;;
39620;SDS011;25309;48.686;9.170;2024-03-22T03:47:14;14.17;;;9.83;;
39620;SDS011;25309;48.686;9.170;2024-03-22T03:49:42;11.67;;;8.97;;
39620;SDS011;25309;48.686;9.170;2024-03-22T03:52:10;14.03;;;9.80;;
39620;SDS011;25309;48.686;9.170;2024-03-22T03:54:36;12.90;;;9.40;;
39620;SDS011;25309;48.686;9.170;2024-03-22T03:57:02;12.10;;;8.60;;
39620;SDS011;25309;48.686;9.170;2024-03-22T03:59:28;13.17;;;9.63;;
39620;SDS011;25309;48.686;9.170;2024-03-22T04:01:55;14.67;;;9.50;;
39620;SDS011;25309;48.686;9.170;2024-03-22T04:04:21;15.33;;;10.30;;
39620;SDS011;25309;48.686;9.170;2024-03-22T04:06:48;15.27;;;9.83;;
39620;SDS011;25309;48.686;9.170;2024-03-22T04:09:14;14.33;;;10.17;;
39620;SDS011;25309;48.686;9.170;2024-03-22T04:11:40;15.10;;;9.63;;
39620;SDS011;25309;48.686;9.170;2024-03-22T04:14:06;13.70;;;9.60;;
39620;SDS011;25309;48.686;9.170;2024-03-22T04:16:32;13.80;;;10.10;;
39620;SDS011;25309;48.686;9.170;2024-03-22T04:18:58;12.30;;;9.33;;
39620;SDS011;25309;48.686;9.170;2024-03-22T04:21:24;13.57;;;10.57;;
39620;SDS011;25309;48.686;9.170;2024-03-22T04:23:51;13.80;;;10.20;;
39620;SDS011;25309;48.686;9.170;2024-03-22T04:26:17;12.97;;;9.53;;
39620;SDS011;25309;48.686;9.170;2024-03-22T04:28:43;15.93;;;10.70;;
39620;SDS011;25309;48.686;9.170;2024-03-22T04:31:09;14.27;;;9.60;;
39620;SDS011;25309;48.686;9.170;2024-03-22T04:33:36;13.03;;;10.10;;
39620;SDS011;25309;48.686;9.170;2024-03-22T04:36:03;13.47;;;9.07;;
39620;SDS011;25309;48.686;9.170;2024-03-22T04:38:30;17.03;;;9.93;;
39620;SDS011;25309;48.686;9.170;2024-03-22T04:40:57;13.50;;;10.13;;
39620;SDS011;25309;48.686;9.170;2024-03-22T04:43:23;14.17;;;10.17;;
39620;SDS011;25309;48.686;9.170;2024-03-22T04:45:50;15.53;;;10.30;;
39620;SDS011;25309;48.686;9.170;2024-03-22T04:48:17;12.13;;;9.40;;
39620;SDS011;25309;48.686;9.170;2024-03-22T04:50:44;12.73;;;10.20;;
39620;SDS011;25309;48.686;9.170;2024-03-22T04:53:10;13.57;;;9.70;;
39620;SDS011;25309;48.686;9.170;2024-03-22T04:55:36;14.10;;;10.20;;
39620;SDS011;25309;48.686;9.170;2024-03-22T04:58:04;14.87;;;10.30;;
39620;SDS011;25309;48.686;9.170;2024-03-22T05:00:30;14.60;;;10.30;;
39620;SDS011;25309;48.686;9.170;2024-03-22T05:02:56;13.73;;;10.07;;
39620;SDS011;25309;48.686;9.170;2024-03-22T05:05:22;13.77;;;10.07;;
39620;SDS011;25309;48.686;9.170;2024-03-22T05:07:48;12.57;;;9.87;;
39620;SDS011;25309;48.686;9.170;2024-03-22T05:10:14;14.50;;;10.00;;
39620;SDS011;25309;48.686;9.170;2024-03-22T05:12:42;12.43;;;8.73;;
39620;SDS011;25309;48.686;9.170;2024-03-22T05:15:09;12.60;;;8.90;;
39620;SDS011;25309;48.686;9.170;2024-03-22T05:17:35;12.63;;;9.20;;
39620;SDS011;25309;48.686;9.170;2024-03-22T05:20:01;12.97;;;9.03;;
39620;SDS011;25309;48.686;9.170;2024-03-22T05:22:28;12.67;;;9.63;;
39620;SDS011;25309;48.686;9.170;2024-03-22T05:24:54;13.50;;;9.50;;
39620;SDS011;25309;48.686;9.170;2024-03-22T05:27:19;12.63;;;9.27;;
39620;SDS011;25309;48.686;9.170;2024-03-22T05:29:46;13.07;;;8.90;;
39620;SDS011;25309;48.686;9.170;2024-03-22T05:32:13;10.20;;;8.47;;
39620;SDS011;25309;48.686;9.170;2024-03-22T05:34:40;14.23;;;9.60;;
39620;SDS011;25309;48.686;9.170;2024-03-22T05:37:06;11.60;;;8.50;;
39620;SDS011;25309;48.686;9.170;2024-03-22T05:39:34;12.27;;;9.17;;
39620;SDS011;25309;48.686;9.170;2024-03-22T05:42:00;14.30;;;8.57;;
39620;SDS011;25309;48.686;9.170;2024-03-22T05:44:26;13.80;;;8.57;;
39620;SDS011;25309;48.686;9.170;2024-03-22T05:46:51;11.60;;;8.43;;
39620;SDS011;25309;48.686;9.170;2024-03-22T05:49:19;12.60;;;9.73;;
39620;SDS011;25309;48.686;9.170;2024-03-22T05:51:45;12.90;;;9.00;;
39620;SDS011;25309;48.686;9.170;2024-03-22T05:54:11;12.23;;;8.40;;
39620;SDS011;25309;48.686;9.170;2024-03-22T05:56:37;12.17;;;8.40;;
39620;SDS011;25309;48.686;9.170;2024-03-22T05:59:03;13.10;;;8.60;;
39620;SDS011;25309;48.686;9.170;2024-03-22T06:01:29;10.97;;;8.57;;
39620;SDS011;25309;48.686;9.170;2024-03-22T06:03:55;11.70;;;8.63;;
39620;SDS011;25309;48.686;9.170;2024-03-22T06:06:22;12.53;;;8.97;;
39620;SDS011;25309;48.686;9.170;2024-03-22T06:08:50;12.87;;;8.70;;
39620;SDS011;25309;48.686;9.170;2024-03-22T06:11:19;12.07;;;9.07;;
39620;SDS011;25309;48.686;9.170;2024-03-22T06:13:46;12.00;;;8.60;;
39620;SDS011;25309;48.686;9.170;2024-03-22T06:16:12;11.60;;;8.57;;
39620;SDS011;25309;48.686;9.170;2024-03-22T06:18:38;13.83;;;8.70;;
39620;SDS011;25309;48.686;9.170;2024-03-22T06:21:05;13.40;;;8.83;;
39620;SDS011;25309;48.686;9.170;2024-03-22T06:23:33;12.67;;;9.00;;
39620;SDS011;25309;48.686;9.170;2024-03-22T06:25:59;12.77;;;8.93;;
39620;SDS011;25309;48.686;9.170;2024-03-22T06:28:26;12.63;;;8.67;;
39620;SDS011;25309;48.686;9.170;2024-03-22T06:30:53;15.20;;;9.70;;
39620;SDS011;25309;48.686;9.170;2024-03-22T06:33:19;11.90;;;9.00;;
39620;SDS011;25309;48.686;9.170;2024-03-22T06:35:45;11.67;;;8.73;;
39620;SDS011;25309;48.686;9.170;2024-03-22T06:38:12;12.90;;;9.23;;
39620;SDS011;25309;48.686;9.170;2024-03-22T06:40:39;12.40;;;8.90;;
39620;SDS011;25309;48.686;9.170;2024-03-22T06:43:05;12.33;;;8.40;;
39620;SDS011;25309;48.686;9.170;2024-03-22T06:45:31;13.33;;;9.23;;
39620;SDS011;25309;48.686;9.170;2024-03-22T06:47:57;14.00;;;9.30;;
39620;SDS011;25309;48.686;9.170;2024-03-22T06:50:23;12.97;;;8.63;;
39620;SDS011;25309;48.686;9.170;2024-03-22T06:52:52;10.87;;;8.17;;
39620;SDS011;25309;48.686;9.170;2024-03-22T06:55:19;11.93;;;9.03;;
39620;SDS011;25309;48.686;9.170;2024-03-22T06:57:46;14.03;;;8.67;;
39620;SDS011;25309;48.686;9.170;2024-03-22T07:00:13;12.23;;;8.50;;
39620;SDS011;25309;48.686;9.170;2024-03-22T07:02:39;15.63;;;8.97;;
39620;SDS011;25309;48.686;9.170;2024-03-22T07:05:06;13.70;;;8.73;;
39620;SDS011;25309;48.686;9.170;2024-03-22T07:07:32;11.97;;;8.30;;
39620;SDS011;25309;48.686;9.170;2024-03-22T07:09:59;13.73;;;9.20;;
39620;SDS011;25309;48.686;9.170;2024-03-22T07:12:25;11.70;;;8.40;;
39620;SDS011;25309;48.686;9.170;2024-03-22T07:14:52;12.20;;;8.20;;
39620;SDS011;25309;48.686;9.170;2024-03-22T07:17:18;14.40;;;8.50;;
39620;SDS011;25309;48.686;9.170;2024-03-22T07:19:49;11.90;;;8.80;;
39620;SDS011;25309;48.686;9.170;2024-03-22T07:22:16;11.90;;;8.20;;
39620;SDS011;25309;48.686;9.170;2024-03-22T07:24:42;11.30;;;8.10;;
39620;SDS011;25309;48.686;9.170;2024-03-22T07:27:08;12.47;;;8.63;;
39620;SDS011;25309;48.686;9.170;2024-03-22T07:29:34;10.83;;;8.40;;
39620;SDS011;25309;48.686;9.170;2024-03-22T07:32:01;12.60;;;7.90;;
39620;SDS011;25309;48.686;9.170;2024-03-22T07:34:29;9.50;;;7.30;;
39620;SDS011;25309;48.686;9.170;2024-03-22T07:36:55;11.33;;;7.93;;
39620;SDS011;25309;48.686;9.170;2024-03-22T07:39:21;13.60;;;7.73;;
39620;SDS011;25309;48.686;9.170;2024-03-22T07:41:47;11.93;;;8.13;;
39620;SDS011;25309;48.686;9.170;2024-03-22T07:44:14;9.97;;;7.83;;
39620;SDS011;25309;48.686;9.170;2024-03-22T07:46:43;11.60;;;7.77;;
39620;SDS011;25309;48.686;9.170;2024-03-22T07:49:10;10.93;;;7.87;;
39620;SDS011;25309;48.686;9.170;2024-03-22T07:51:36;10.47;;;8.20;;
39620;SDS011;25309;48.686;9.170;2024-03-22T07:54:02;10.37;;;8.43;;
39620;SDS011;25309;48.686;9.170;2024-03-22T07:56:28;11.00;;;7.33;;
39620;SDS011;25309;48.686;9.170;2024-03-22T07:58:54;12.97;;;8.43;;
39620;SDS011;25309;48.686;9.170;2024-03-22T08:01:21;10.27;;;7.90;;
39620;SDS011;25309;48.686;9.170;2024-03-22T08:03:47;10.73;;;8.17;;
39620;SDS011;25309;48.686;9.170;2024-03-22T08:06:14;9.80;;;7.70;;
39620;SDS011;25309;48.686;9.170;2024-03-22T08:08:40;11.33;;;8.10;;
39620;SDS011;25309;48.686;9.170;2024-03-22T08:11:06;10.70;;;8.00;;
39620;SDS011;25309;48.686;9.170;2024-03-22T08:13:32;9.27;;;7.10;;
39620;SDS011;25309;48.686;9.170;2024-03-22T08:15:58;8.73;;;6.30;;
39620;SDS011;25309;48.686;9.170;2024-03-22T08:18:24;10.13;;;7.33;;
39620;SDS011;25309;48.686;9.170;2024-03-22T08:20:50;8.90;;;6.90;;
39620;SDS011;25309;48.686;9.170;2024-03-22T08:23:18;10.00;;;6.47;;
39620;SDS011;25309;48.686;9.170;2024-03-22T08:25:45;8.50;;;6.40;;
39620;SDS011;25309;48.686;9.170;2024-03-22T08:28:12;9.63;;;7.03;;
39620;SDS011;25309;48.686;9.170;2024-03-22T08:30:41;8.37;;;6.33;;
39620;SDS011;25309;48.686;9.170;2024-03-22T08:33:07;9.90;;;6.50;;
39620;SDS011;25309;48.686;9.170;2024-03-22T08:35:34;10.33;;;6.63;;
39620;SDS011;25309;48.686;9.170;2024-03-22T08:38:00;8.60;;;6.47;;
39620;SDS011;25309;48.686;9.170;2024-03-22T08:40:27;8.27;;;6.67;;
39620;SDS011;25309;48.686;9.170;2024-03-22T08:42:53;11.10;;;6.90;;
39620;SDS011;25309;48.686;9.170;2024-03-22T08:45:20;8.30;;;6.53;;
39620;SDS011;25309;48.686;9.170;2024-03-22T08:47:45;8.97;;;6.00;;
39620;SDS011;25309;48.686;9.170;2024-03-22T08:50:11;10.23;;;6.30;;
39620;SDS011;25309;48.686;9.170;2024-03-22T08:52:37;9.17;;;6.13;;
39620;SDS011;25309;48.686;9.170;2024-03-22T08:55:04;6.47;;;5.80;;
39620;SDS011;25309;48.686;9.170;2024-03-22T08:57:33;8.20;;;5.90;;
39620;SDS011;25309;48.686;9.170;2024-03-22T08:59:59;7.90;;;6.03;;
39620;SDS011;25309;48.686;9.170;2024-03-22T09:02:25;6.80;;;5.23;;
39620;SDS011;25309;48.686;9.170;2024-03-22T09:04:52;7.73;;;5.00;;
39620;SDS011;25309;48.686;9.170;2024-03-22T09:07:18;7.60;;;6.10;;
39620;SDS011;25309;48.686;9.170;2024-03-22T09:09:45;7.27;;;5.67;;
39620;SDS011;25309;48.686;9.170;2024-03-22T09:12:11;8.03;;;5.60;;
39620;SDS011;25309;48.686;9.170;2024-03-22T09:14:38;7.93;;;5.70;;
39620;SDS011;25309;48.686;9.170;2024-03-22T09:17:04;7.70;;;5.23;;
39620;SDS011;25309;48.686;9.170;2024-03-22T09:19:30;7.57;;;5.10;;
39620;SDS011;25309;48.686;9.170;2024-03-22T09:21:57;9.43;;;5.20;;
39620;SDS011;25309;48.686;9.170;2024-03-22T09:24:23;5.63;;;4.60;;
39620;SDS011;25309;48.686;9.170;2024-03-22T09:26:49;5.00;;;3.93;;
39620;SDS011;25309;48.686;9.170;2024-03-22T09:29:14;8.13;;;5.37;;
39620;SDS011;25309;48.686;9.170;2024-03-22T09:31:42;8.87;;;5.00;;
39620;SDS011;25309;48.686;9.170;2024-03-22T09:34:08;7.83;;;4.70;;
39620;SDS011;25309;48.686;9.170;2024-03-22T09:36:34;5.63;;;4.33;;
39620;SDS011;25309;48.686;9.170;2024-03-22T09:39:00;6.43;;;4.50;;
39620;SDS011;25309;48.686;9.170;2024-03-22T09:41:27;6.07;;;4.40;;
39620;SDS011;25309;48.686;9.170;2024-03-22T09:43:54;6.17;;;4.17;;
39620;SDS011;25309;48.686;9.170;2024-03-22T09:46:23;6.27;;;3.87;;
39620;SDS011;25309;48.686;9.170;2024-03-22T09:48:52;4.50;;;3.43;;
39620;SDS011;25309;48.686;9.170;2024-03-22T09:51:19;4.77;;;3.40;;
39620;SDS011;25309;48.686;9.170;2024-03-22T09:53:46;5.30;;;3.50;;
39620;SDS011;25309;48.686;9.170;2024-03-22T09:56:14;5.23;;;3.13;;
39620;SDS011;25309;48.686;9.170;2024-03-22T09:58:41;5.73;;;3.33;;
39620;SDS011;25309;48.686;9.170;2024-03-22T10:01:08;5.27;;;3.50;;
39620;SDS011;25309;48.686;9.170;2024-03-22T10:03:34;4.23;;;3.50;;
39620;SDS011;25309;48.686;9.170;2024-03-22T10:06:06;5.70;;;3.77;;
39620;SDS011;25309;48.686;9.170;2024-03-22T10:08:32;4.97;;;3.53;;
39620;SDS011;25309;48.686;9.170;2024-03-22T10:11:01;4.40;;;3.77;;
39620;SDS011;25309;48.686;9.170;2024-03-22T10:13:27;5.40;;;3.93;;
39620;SDS011;25309;48.686;9.170;2024-03-22T10:15:53;5.20;;;3.87;;
39620;SDS011;25309;48.686;9.170;2024-03-22T10:18:19;6.07;;;3.70;;
39620;SDS011;25309;48.686;9.170;2024-03-22T10:20:47;6.10;;;4.20;;
39620;SDS011;25309;48.686;9.170;2024-03-22T10:23:14;5.10;;;3.57;;
39620;SDS011;25309;48.686;9.170;2024-03-22T10:25:40;5.73;;;3.97;;
39620;SDS011;25309;48.686;9.170;2024-03-22T10:28:06;6.67;;;4.20;;
39620;SDS011;25309;48.686;9.170;2024-03-22T10:30:32;7.23;;;3.80;;
39620;SDS011;25309;48.686;9.170;2024-03-22T10:33:02;5.57;;;3.63;;
39620;SDS011;25309;48.686;9.170;2024-03-22T10:35:29;6.10;;;3.77;;
39620;SDS011;25309;48.686;9.170;2024-03-22T10:37:56;7.30;;;4.00;;
39620;SDS011;25309;48.686;9.170;2024-03-22T10:40:23;6.37;;;4.47;;
39620;SDS011;25309;48.686;9.170;2024-03-22T10:42:50;6.37;;;3.87;;
39620;SDS011;25309;48.686;9.170;2024-03-22T10:45:16;6.93;;;4.73;;
39620;SDS011;25309;48.686;9.170;2024-03-22T10:47:43;5.27;;;4.00;;
39620;SDS011;25309;48.686;9.170;2024-03-22T10:50:11;5.57;;;4.20;;
39620;SDS011;25309;48.686;9.170;2024-03-22T10:52:38;5.80;;;4.30;;
39620;SDS011;25309;48.686;9.170;2024-03-22T10:55:08;5.53;;;3.80;;
39620;SDS011;25309;48.686;9.170;2024-03-22T10:57:41;5.07;;;3.77;;
39620;SDS011;25309;48.686;9.170;2024-03-22T11:00:11;5.37;;;4.13;;
39620;SDS011;25309;48.686;9.170;2024-03-22T11:02:39;7.13;;;4.03;;
39620;SDS011;25309;48.686;9.170;2024-03-22T11:05:15;5.73;;;4.17;;
39620;SDS011;25309;48.686;9.170;2024-03-22T11:07:43;6.27;;;3.97;;
39620;SDS011;25309;48.686;9.170;2024-03-22T11:10:09;7.57;;;4.33;;
39620;SDS011;25309;48.686;9.170;2024-03-22T11:12:37;8.97;;;4.87;;
39620;SDS011;25309;48.686;9.170;2024-03-22T11:15:05;5.50;;;4.17;;
39620;SDS011;25309;48.686;9.170;2024-03-22T11:17:32;5.80;;;4.23;;
39620;SDS011;25309;48.686;9.170;2024-03-22T11:19:58;6.07;;;4.50;;
39620;SDS011;25309;48.686;9.170;2024-03-22T11:22:25;7.70;;;4.53;;
39620;SDS011;25309;48.686;9.170;2024-03-22T11:24:52;4.43;;;2.90;;
39620;SDS011;25309;48.686;9.170;2024-03-22T11:27:18;5.13;;;3.40;;
39620;SDS011;25309;48.686;9.170;2024-03-22T11:29:44;5.53;;;4.20;;
39620;SDS011;25309;48.686;9.170;2024-03-22T11:32:14;5.93;;;3.10;;
39620;SDS011;25309;48.686;9.170;2024-03-22T11:34:41;6.43;;;3.80;;
39620;SDS011;25309;48.686;9.170;2024-03-22T11:37:07;5.10;;;3.37;;
39620;SDS011;25309;48.686;9.170;2024-03-22T11:39:35;5.40;;;4.00;;
39620;SDS011;25309;48.686;9.170;2024-03-22T11:42:01;7.43;;;3.50;;
39620;SDS011;25309;48.686;9.170;2024-03-22T11:44:29;7.20;;;4.10;;
39620;SDS011;25309;48.686;9.170;2024-03-22T11:46:56;5.40;;;4.30;;
39620;SDS011;25309;48.686;9.170;2024-03-22T11:49:24;5.43;;;3.80;;
39620;SDS011;25309;48.686;9.170;2024-03-22T11:51:51;4.97;;;3.67;;
39620;SDS011;25309;48.686;9.170;2024-03-22T11:54:18;3.83;;;2.70;;
39620;SDS011;25309;48.686;9.170;2024-03-22T11:56:45;3.93;;;3.17;;
39620;SDS011;25309;48.686;9.170;2024-03-22T11:59:11;5.13;;;4.03;;
39620;SDS011;25309;48.686;9.170;2024-03-22T12:01:37;4.80;;;3.50;;
39620;SDS011;25309;48.686;9.170;2024-03-22T12:04:03;6.17;;;5.07;;
39620;SDS011;25309;48.686;9.170;2024-03-22T12:06:31;5.30;;;4.33;;
39620;SDS011;25309;48.686;9.170;2024-03-22T12:08:57;6.67;;;3.80;;
39620;SDS011;25309;48.686;9.170;2024-03-22T12:11:23;4.43;;;3.30;;
39620;SDS011;25309;48.686;9.170;2024-03-22T12:13:49;5.50;;;3.23;;
39620;SDS011;25309;48.686;9.170;2024-03-22T12:16:14;5.13;;;3.10;;
39620;SDS011;25309;48.686;9.170;2024-03-22T12:18:40;5.40;;;3.13;;
39620;SDS011;25309;48.686;9.170;2024-03-22T12:21:06;6.33;;;4.07;;
39620;SDS011;25309;48.686;9.170;2024-03-22T12:23:34;6.27;;;4.37;;
39620;SDS011;25309;48.686;9.170;2024-03-22T12:26:00;7.40;;;4.37;;
39620;SDS011;25309;48.686;9.170;2024-03-22T12:28:26;5.40;;;4.00;;
39620;SDS011;25309;48.686;9.170;2024-03-22T12:30:52;5.37;;;4.17;;
39620;SDS011;25309;48.686;9.170;2024-03-22T12:33:18;6.50;;;4.20;;
39620;SDS011;25309;48.686;9.170;2024-03-22T12:35:45;4.63;;;3.70;;
39620;SDS011;25309;48.686;9.170;2024-03-22T12:38:12;6.07;;;4.10;;
39620;SDS011;25309;48.686;9.170;2024-03-22T12:40:40;5.73;;;3.60;;
39620;SDS011;25309;48.686;9.170;2024-03-22T12:43:07;6.17;;;4.13;;
39620;SDS011;25309;48.686;9.170;2024-03-22T12:45:35;7.30;;;4.40;;
39620;SDS011;25309;48.686;9.170;2024-03-22T12:48:01;4.77;;;3.87;;
39620;SDS011;25309;48.686;9.170;2024-03-22T12:50:28;7.23;;;4.27;;
39620;SDS011;25309;48.686;9.170;2024-03-22T12:52:54;6.30;;;4.33;;
39620;SDS011;25309;48.686;9.170;2024-03-22T12:55:20;5.57;;;4.20;;
39620;SDS011;25309;48.686;9.170;2024-03-22T12:57:47;5.00;;;3.60;;
39620;SDS011;25309;48.686;9.170;2024-03-22T13:00:14;5.17;;;3.50;;
39620;SDS011;25309;48.686;9.170;2024-03-22T13:02:43;4.80;;;3.60;;
39620;SDS011;25309;48.686;9.170;2024-03-22T13:05:09;6.57;;;3.80;;
39620;SDS011;25309;48.686;9.170;2024-03-22T13:07:35;5.63;;;3.43;;
39620;SDS011;25309;48.686;9.170;2024-03-22T13:10:02;4.90;;;3.70;;
39620;SDS011;25309;48.686;9.170;2024-03-22T13:12:29;4.47;;;3.30;;
39620;SDS011;25309;48.686;9.170;2024-03-22T13:15:01;5.27;;;3.60;;
39620;SDS011;25309;48.686;9.170;2024-03-22T13:17:27;7.03;;;4.50;;
39620;SDS011;25309;48.686;9.170;2024-03-22T13:19:53;6.37;;;3.80;;
39620;SDS011;25309;48.686;9.170;2024-03-22T13:22:19;4.30;;;3.43;;
39620;SDS011;25309;48.686;9.170;2024-03-22T13:24:46;4.97;;;3.23;;
39620;SDS011;25309;48.686;9.170;2024-03-22T13:27:12;5.10;;;3.67;;
39620;SDS011;25309;48.686;9.170;2024-03-22T13:29:38;4.17;;;3.07;;
39620;SDS011;25309;48.686;9.170;2024-03-22T13:32:06;5.50;;;3.57;;
39620;SDS011;25309;48.686;9.170;2024-03-22T13:34:33;4.87;;;3.37;;
39620;SDS011;25309;48.686;9.170;2024-03-22T13:36:59;5.13;;;3.10;;
39620;SDS011;25309;48.686;9.170;2024-03-22T13:39:25;4.57;;;3.23;;
39620;SDS011;25309;48.686;9.170;2024-03-22T13:41:51;5.23;;;3.60;;
39620;SDS011;25309;48.686;9.170;2024-03-22T13:44:17;4.40;;;2.70;;
39620;SDS011;25309;48.686;9.170;2024-03-22T13:46:43;4.77;;;3.20;;
39620;SDS011;25309;48.686;9.170;2024-03-22T13:49:14;5.97;;;2.90;;
39620;SDS011;25309;48.686;9.170;2024-03-22T13:51:43;5.00;;;2.60;;
39620;SDS011;25309;48.686;9.170;2024-03-22T13:54:09;3.87;;;2.60;;
39620;SDS011;25309;48.686;9.170;2024-03-22T13:56:37;3.83;;;2.73;;
39620;SDS011;25309;48.686;9.170;2024-03-22T13:59:06;4.13;;;2.60;;
39620;SDS011;25309;48.686;9.170;2024-03-22T14:01:35;5.23;;;2.47;;
39620;SDS011;25309;48.686;9.170;2024-03-22T14:04:01;4.40;;;2.70;;
39620;SDS011;25309;48.686;9.170;2024-03-22T14:06:30;4.77;;;2.43;;
39620;SDS011;25309;48.686;9.170;2024-03-22T14:08:57;5.07;;;2.10;;
39620;SDS011;25309;48.686;9.170;2024-03-22T14:11:26;4.67;;;2.50;;
39620;SDS011;25309;48.686;9.170;2024-03-22T14:13:52;5.23;;;2.77;;
39620;SDS011;25309;48.686;9.170;2024-03-22T14:16:18;3.80;;;2.43;;
39620;SDS011;25309;48.686;9.170;2024-03-22T14:18:44;3.80;;;2.30;;
39620;SDS011;25309;48.686;9.170;2024-03-22T14:21:10;3.77;;;2.50;;
39620;SDS011;25309;48.686;9.170;2024-03-22T14:23:41;3.80;;;2.43;;
39620;SDS011;25309;48.686;9.170;2024-03-22T14:26:07;3.47;;;2.10;;
39620;SDS011;25309;48.686;9.170;2024-03-22T14:28:33;4.50;;;1.80;;
39620;SDS011;25309;48.686;9.170;2024-03-22T14:30:58;5.27;;;2.40;;
39620;SDS011;25309;48.686;9.170;2024-03-22T14:33:24;2.33;;;1.93;;
39620;SDS011;25309;48.686;9.170;2024-03-22T14:35:50;3.87;;;2.00;;